Аэропорт
Шэньянский международный аэропорт Таосянь (ZYTX)

 ZYTX / SHE

China
CN-21
Таосянь
 41.63980, 123.48300  / 198 ft

 ZYTX 201800Z 00000MPS 8000 NSC 00/M02 Q1028 NOSIG
 TAF ZYTX 200846Z 2012/2112 20004MPS 6000 BKN040 TX04/2107Z TNM04/2022Z BECMG 2018/2019 3000 -SNRA BECMG 2020/2021 -SN TEMPO 2021/2103 0700 SN

2020 © VATRUS division (Privacy Policy)